Terminal Aerodrome Forecast
Issued by NWS

Home | Current Version | Previous Version | Text Only | Print | Product List | Glossary On
Versions: 1 2 3 4 5 6 7 8 9 10 11 12 13 14 15 16
000
FTUS45 KRIW 091125
TAFRKS
TAF
KRKS 091125Z 0912/1012 34008KT P6SM -SN BKN007
     FM091300 25011KT P6SM VCSH SCT007 BKN025
      TEMPO 0913/0916 2SM -SHSN BKN007
     FM091600 25014G24KT P6SM VCSH SCT025 OVC040=

USA.gov is the U.S. government's official web portal to all federal, state and local government web resources and services.